createdAt,value
2019-05-26T00:00:52.906Z,58.88
2019-05-26T00:05:48.839Z,59.12
2019-05-26T00:10:44.749Z,59.24
2019-05-26T00:15:40.676Z,59.33
2019-05-26T00:20:36.598Z,59.37
2019-05-26T00:25:32.522Z,58.92
2019-05-26T00:30:28.445Z,59.00
2019-05-26T00:35:24.371Z,59.16
2019-05-26T00:40:20.622Z,59.36
2019-05-26T00:45:16.768Z,59.73
2019-05-26T00:50:13.816Z,59.82
2019-05-26T00:55:10.249Z,59.45
2019-05-26T01:00:09.799Z,58.44
2019-05-26T01:05:06.823Z,58.84
2019-05-26T01:10:07.577Z,59.64
2019-05-26T01:15:04.305Z,60.11
2019-05-26T01:20:00.235Z,60.50
2019-05-26T01:24:56.149Z,60.51
2019-05-26T01:29:52.074Z,60.61
2019-05-26T01:34:48.094Z,60.10
2019-05-26T01:39:44.025Z,60.03
2019-05-26T01:44:39.958Z,60.22
2019-05-26T01:49:36.526Z,60.56
2019-05-26T01:54:32.766Z,60.46
2019-05-26T01:59:28.697Z,60.52
2019-05-26T02:04:24.630Z,60.29
2019-05-26T02:09:21.177Z,60.41
2019-05-26T02:14:17.089Z,60.15
2019-05-26T02:19:13.018Z,59.78
2019-05-26T02:24:08.959Z,59.36
2019-05-26T02:29:04.890Z,59.63
2019-05-26T02:34:00.818Z,59.36
2019-05-26T02:39:03.018Z,58.98
2019-05-26T02:43:58.531Z,58.58
2019-05-26T02:48:54.478Z,58.93
2019-05-26T02:53:50.409Z,58.37
2019-05-26T02:58:46.337Z,58.16
2019-05-26T03:03:42.362Z,58.00
2019-05-26T03:08:42.223Z,58.30
2019-05-26T03:13:38.355Z,58.18
2019-05-26T03:18:34.976Z,58.19
2019-05-26T03:23:31.206Z,58.57
2019-05-26T03:28:27.239Z,58.24
2019-05-26T03:33:23.174Z,58.03
2019-05-26T03:38:19.353Z,57.89
2019-05-26T03:43:15.492Z,58.19
2019-05-26T03:48:11.564Z,58.27
2019-05-26T03:53:07.491Z,57.93
2019-05-26T03:58:03.426Z,57.91
2019-05-26T04:02:59.352Z,57.91
2019-05-26T04:07:55.289Z,57.28
2019-05-26T04:12:51.218Z,57.51
2019-05-26T04:17:47.147Z,57.41
2019-05-26T04:22:43.070Z,57.49
2019-05-26T04:27:38.996Z,57.57
2019-05-26T04:32:34.927Z,57.49
2019-05-26T04:37:30.850Z,57.49
2019-05-26T04:42:26.774Z,56.61
2019-05-26T04:47:22.730Z,56.11
2019-05-26T04:52:18.627Z,56.01
2019-05-26T04:57:14.551Z,54.87
2019-05-26T05:02:10.549Z,54.70
2019-05-26T05:07:06.470Z,53.18
2019-05-26T05:12:02.497Z,52.43
2019-05-26T05:16:58.434Z,52.70
2019-05-26T05:21:54.371Z,53.05
2019-05-26T05:26:50.311Z,53.14
2019-05-26T05:31:46.243Z,52.88
2019-05-26T05:36:42.175Z,51.85
2019-05-26T05:41:38.198Z,52.50
2019-05-26T05:46:34.156Z,53.00
2019-05-26T05:51:30.087Z,51.94
2019-05-26T05:56:26.048Z,51.72
2019-05-26T06:01:21.971Z,51.60
2019-05-26T06:06:17.908Z,49.93
2019-05-26T06:11:16.944Z,48.63
2019-05-26T06:16:11.686Z,47.71
2019-05-26T06:21:07.614Z,47.21
2019-05-26T06:26:03.556Z,49.06
2019-05-26T06:30:59.471Z,49.21
2019-05-26T06:35:55.405Z,48.22
2019-05-26T06:40:51.321Z,47.60
2019-05-26T06:45:47.297Z,47.97
2019-05-26T06:50:43.221Z,47.67
2019-05-26T06:55:39.150Z,46.53
2019-05-26T07:00:35.190Z,45.89
2019-05-26T07:05:31.900Z,44.63
2019-05-26T07:10:27.829Z,44.39
2019-05-26T07:15:23.830Z,44.87
2019-05-26T07:20:19.779Z,44.81
2019-05-26T07:25:15.806Z,44.09
2019-05-26T07:30:12.328Z,44.66
2019-05-26T07:35:08.810Z,44.36
2019-05-26T07:40:05.043Z,45.23
2019-05-26T07:45:00.981Z,44.14
2019-05-26T07:49:56.907Z,44.43
2019-05-26T07:54:52.834Z,44.26
2019-05-26T07:59:48.759Z,44.56
2019-05-26T08:04:44.687Z,45.13
2019-05-26T08:09:40.786Z,43.85
2019-05-26T08:14:36.822Z,43.87
2019-05-26T08:19:32.750Z,42.93
2019-05-26T08:24:28.704Z,42.87
2019-05-26T08:29:24.608Z,42.50
2019-05-26T08:34:20.542Z,42.41
2019-05-26T08:39:16.526Z,41.86
2019-05-26T08:44:12.462Z,40.81
2019-05-26T08:49:08.409Z,40.46
2019-05-26T08:54:04.444Z,40.40
2019-05-26T08:59:00.491Z,40.36
2019-05-26T09:03:56.524Z,39.88
2019-05-26T09:08:55.149Z,40.17
2019-05-26T09:13:55.169Z,39.78
2019-05-26T09:18:53.603Z,39.81
2019-05-26T09:23:50.385Z,38.97
2019-05-26T09:28:46.787Z,38.42
2019-05-26T09:33:42.977Z,38.42
2019-05-26T09:38:46.019Z,38.60
2019-05-26T09:43:43.440Z,38.91
2019-05-26T09:48:39.370Z,39.26
2019-05-26T09:53:35.298Z,37.01
2019-05-26T09:58:31.233Z,38.02
2019-05-26T10:03:27.165Z,38.03
2019-05-26T10:08:24.487Z,38.27
2019-05-26T10:13:31.303Z,37.96
2019-05-26T10:18:18.354Z,36.35
2019-05-26T10:23:14.284Z,36.94
2019-05-26T10:28:10.230Z,36.09
2019-05-26T10:33:06.226Z,37.02
2019-05-26T10:38:02.364Z,36.27
2019-05-26T10:42:58.288Z,35.44
2019-05-26T10:47:54.263Z,35.65
2019-05-26T10:52:51.475Z,34.31
2019-05-26T10:57:49.943Z,33.69
2019-05-26T11:02:46.077Z,34.48
2019-05-26T11:07:42.024Z,34.26
2019-05-26T11:12:37.948Z,34.97
2019-05-26T11:17:33.945Z,34.49
2019-05-26T11:22:30.137Z,33.26
2019-05-26T11:27:26.103Z,34.31
2019-05-26T11:32:22.217Z,32.10
2019-05-26T11:37:25.348Z,32.47
2019-05-26T11:42:22.269Z,33.75
2019-05-26T11:47:18.331Z,33.05
2019-05-26T11:52:14.307Z,32.85
2019-05-26T11:57:10.236Z,32.39
2019-05-26T12:02:06.367Z,32.77
2019-05-26T12:07:04.523Z,32.61
2019-05-26T12:12:00.386Z,31.61
2019-05-26T12:16:56.312Z,32.45
2019-05-26T12:21:52.263Z,31.27
2019-05-26T12:26:48.191Z,30.61
2019-05-26T12:31:44.174Z,30.21
2019-05-26T12:36:40.072Z,29.90
2019-05-26T12:41:37.348Z,30.88
2019-05-26T12:46:33.666Z,30.25
2019-05-26T12:51:29.618Z,30.33
2019-05-26T12:56:25.539Z,31.41
2019-05-26T13:01:21.472Z,30.16
2019-05-26T13:06:17.834Z,30.14
2019-05-26T13:11:13.782Z,31.67
2019-05-26T13:16:10.048Z,30.51
2019-05-26T13:21:06.086Z,30.50
2019-05-26T13:26:02.016Z,31.80
2019-05-26T13:30:57.951Z,31.95
2019-05-26T13:35:54.009Z,32.34
2019-05-26T13:40:49.996Z,32.18
2019-05-26T13:45:46.089Z,31.05
2019-05-26T13:50:42.006Z,32.67
2019-05-26T13:55:38.042Z,31.79
2019-05-26T14:00:33.975Z,31.91
2019-05-26T14:05:29.911Z,32.42
2019-05-26T14:10:31.601Z,32.66
2019-05-26T14:15:37.215Z,33.38
2019-05-26T14:20:40.932Z,32.39
2019-05-26T14:25:37.361Z,32.71
2019-05-26T14:30:33.587Z,32.18
2019-05-26T14:35:29.623Z,32.64
2019-05-26T14:40:25.653Z,33.38
2019-05-26T14:45:21.680Z,32.51
2019-05-26T14:50:18.101Z,32.53
2019-05-26T14:55:14.143Z,32.77
2019-05-26T15:00:10.672Z,32.35
2019-05-26T15:05:07.907Z,33.62
2019-05-26T15:10:05.638Z,34.33
2019-05-26T15:15:01.779Z,34.74
2019-05-26T15:20:07.120Z,35.12
2019-05-26T15:25:04.327Z,35.38
2019-05-26T15:30:00.253Z,35.52
2019-05-26T15:34:56.193Z,35.72
2019-05-26T15:39:52.241Z,35.83
2019-05-26T15:44:48.170Z,36.35
2019-05-26T15:49:44.114Z,36.25
2019-05-26T15:54:40.044Z,35.96
2019-05-26T15:59:36.060Z,35.74
2019-05-26T16:04:31.986Z,36.04
2019-05-26T16:09:27.919Z,35.89
2019-05-26T16:14:23.859Z,35.95
2019-05-26T16:19:19.787Z,35.81
2019-05-26T16:24:16.027Z,36.00
2019-05-26T16:29:11.959Z,36.88
2019-05-26T16:34:07.853Z,36.22
2019-05-26T16:39:08.465Z,36.45
2019-05-26T16:44:04.459Z,36.15
2019-05-26T16:49:00.497Z,36.04
2019-05-26T16:53:56.526Z,36.43
2019-05-26T16:58:52.456Z,35.85
2019-05-26T17:03:48.387Z,36.30
2019-05-26T17:08:46.022Z,36.29
2019-05-26T17:13:42.053Z,36.30
2019-05-26T17:18:37.987Z,36.98
2019-05-26T17:23:34.019Z,37.02
2019-05-26T17:28:29.944Z,36.74
2019-05-26T17:33:25.893Z,36.97
2019-05-26T17:38:24.848Z,37.45
2019-05-26T17:43:20.883Z,36.94
2019-05-26T17:48:16.848Z,37.31
2019-05-26T17:53:12.784Z,37.21
2019-05-26T17:58:08.726Z,37.37
2019-05-26T18:03:04.652Z,37.59
2019-05-26T18:08:04.282Z,37.76
2019-05-26T18:13:00.995Z,38.21
2019-05-26T18:17:57.037Z,38.11
2019-05-26T18:22:53.463Z,38.39
2019-05-26T18:27:54.838Z,38.50
2019-05-26T18:32:58.073Z,38.19
2019-05-26T18:37:59.076Z,38.16
2019-05-26T18:42:55.988Z,38.34
2019-05-26T18:48:03.176Z,38.00
2019-05-26T18:52:53.214Z,38.23
2019-05-26T18:58:01.036Z,38.81
2019-05-26T19:03:06.589Z,39.06
2019-05-26T19:08:06.243Z,39.53
2019-05-26T19:13:16.784Z,39.63
2019-05-26T19:18:19.987Z,40.07
2019-05-26T19:23:15.128Z,40.36
2019-05-26T19:28:14.424Z,40.67
2019-05-26T19:38:51.518Z,41.46
2019-05-26T19:44:00.674Z,41.14
2019-05-26T19:49:01.827Z,41.37
2019-05-26T19:53:59.775Z,41.43
2019-05-26T19:58:56.398Z,41.35
2019-05-26T20:03:52.934Z,41.73
2019-05-26T20:08:51.208Z,41.74
2019-05-26T20:13:47.236Z,41.62
2019-05-26T20:18:43.175Z,41.71
2019-05-26T20:23:39.109Z,42.04
2019-05-26T20:28:35.041Z,42.13
2019-05-26T20:33:33.925Z,42.00
2019-05-26T20:38:30.898Z,41.95
2019-05-26T20:43:29.236Z,42.27
2019-05-26T20:48:27.107Z,42.26
2019-05-26T20:53:23.152Z,42.40
2019-05-26T20:58:19.194Z,42.69
2019-05-26T21:03:15.225Z,42.82
2019-05-26T21:08:11.159Z,42.95
2019-05-26T21:13:07.087Z,42.98
2019-05-26T21:18:03.118Z,43.17
2019-05-26T21:22:59.069Z,43.33
2019-05-26T21:27:55.039Z,43.45
2019-05-26T21:32:50.975Z,43.72
2019-05-26T21:37:46.890Z,44.11
2019-05-26T21:42:42.825Z,44.15
2019-05-26T21:47:38.896Z,44.10
2019-05-26T21:52:34.941Z,43.85
2019-05-26T21:57:30.937Z,43.95
2019-05-26T22:02:27.030Z,44.08
2019-05-26T22:07:22.960Z,43.95
2019-05-26T22:12:18.895Z,44.13
2019-05-26T22:17:14.924Z,44.30
2019-05-26T22:22:10.962Z,44.18
2019-05-26T22:27:06.888Z,44.20
2019-05-26T22:32:02.923Z,44.23
2019-05-26T22:36:58.977Z,44.71
2019-05-26T22:41:54.998Z,44.49
2019-05-26T22:46:51.243Z,44.79
2019-05-26T22:51:47.362Z,44.67
2019-05-26T22:56:43.289Z,44.75
2019-05-26T23:01:39.230Z,44.80
2019-05-26T23:06:35.158Z,45.12
2019-05-26T23:11:31.165Z,44.73
2019-05-26T23:16:27.093Z,44.62
2019-05-26T23:21:23.024Z,44.78
2019-05-26T23:26:18.956Z,44.80
2019-05-26T23:31:14.882Z,44.66
2019-05-26T23:36:10.809Z,44.53
2019-05-26T23:41:06.741Z,44.49
2019-05-26T23:46:02.670Z,44.39
2019-05-26T23:50:58.605Z,44.41
2019-05-26T23:55:54.615Z,44.61
